createdAt,value
2024-01-19T00:00:03.804Z,75.53
2024-01-19T00:02:30.007Z,76.26
2024-01-19T00:04:56.323Z,76.88
2024-01-19T00:07:22.485Z,76.17
2024-01-19T00:09:48.653Z,76.67
2024-01-19T00:12:14.796Z,76.41
2024-01-19T00:14:40.988Z,75.48
2024-01-19T00:17:07.174Z,76.91
2024-01-19T00:19:33.418Z,75.48
2024-01-19T00:21:59.631Z,76.98
2024-01-19T00:24:25.895Z,75.16
2024-01-19T00:26:52.142Z,78.76
2024-01-19T00:29:18.473Z,78.40
2024-01-19T00:31:44.630Z,74.79
2024-01-19T00:34:11.050Z,76.69
2024-01-19T00:36:37.458Z,75.96
2024-01-19T00:39:03.589Z,75.20
2024-01-19T00:41:30.038Z,76.18
2024-01-19T00:43:56.191Z,76.42
2024-01-19T00:46:22.349Z,76.08
2024-01-19T00:48:48.588Z,75.17
2024-01-19T00:51:14.862Z,77.06
2024-01-19T00:53:41.147Z,74.31
2024-01-19T00:56:07.390Z,75.30
2024-01-19T00:58:33.681Z,74.45
2024-01-19T01:01:00.113Z,75.14
2024-01-19T01:03:26.344Z,77.16
2024-01-19T01:05:52.530Z,75.92
2024-01-19T01:08:18.745Z,75.54
2024-01-19T01:10:45.161Z,76.79
2024-01-19T01:13:11.381Z,76.38
2024-01-19T01:15:37.527Z,74.36
2024-01-19T01:18:03.979Z,76.20
2024-01-19T01:20:30.246Z,75.41
2024-01-19T01:22:56.472Z,74.99
2024-01-19T01:25:22.666Z,75.53
2024-01-19T01:27:49.071Z,75.79
2024-01-19T01:30:15.502Z,75.45
2024-01-19T01:32:41.823Z,74.75
2024-01-19T01:35:08.285Z,74.85
2024-01-19T01:37:34.703Z,75.25
2024-01-19T01:40:00.925Z,74.78
2024-01-19T01:42:27.084Z,74.53
2024-01-19T01:44:53.384Z,74.63
2024-01-19T01:47:19.634Z,74.79
2024-01-19T01:49:46.017Z,74.55
2024-01-19T01:52:12.360Z,75.26
2024-01-19T01:54:38.495Z,76.24
2024-01-19T01:57:04.634Z,74.64
2024-01-19T01:59:30.826Z,74.65
2024-01-19T02:01:57.010Z,74.99
2024-01-19T02:04:23.256Z,74.48
2024-01-19T02:06:49.848Z,74.30
2024-01-19T02:09:16.229Z,76.02
2024-01-19T02:11:42.511Z,75.32
2024-01-19T02:14:08.910Z,76.36
2024-01-19T02:16:35.164Z,75.40
2024-01-19T02:19:01.433Z,74.16
2024-01-19T02:21:27.733Z,75.79
2024-01-19T02:23:53.923Z,74.08
2024-01-19T02:26:20.093Z,76.34
2024-01-19T02:28:46.242Z,75.83
2024-01-19T02:31:12.435Z,73.67
2024-01-19T02:33:38.646Z,73.90
2024-01-19T02:36:04.849Z,74.46
2024-01-19T02:38:31.056Z,74.90
2024-01-19T02:40:57.217Z,73.01
2024-01-19T02:43:23.358Z,72.06
2024-01-19T02:45:49.563Z,74.46
2024-01-19T02:48:16.062Z,74.80
2024-01-19T02:50:42.534Z,72.87
2024-01-19T02:53:08.944Z,72.50
2024-01-19T02:55:35.111Z,71.72
2024-01-19T02:58:01.417Z,72.85
2024-01-19T03:00:27.571Z,72.67
2024-01-19T03:02:53.831Z,72.70
2024-01-19T03:05:20.090Z,73.42
2024-01-19T03:07:46.242Z,73.59
2024-01-19T03:10:12.412Z,73.48
2024-01-19T03:12:38.588Z,72.41
2024-01-19T03:15:05.877Z,72.52
2024-01-19T03:17:32.112Z,73.06
2024-01-19T03:19:58.311Z,75.30
2024-01-19T03:22:24.456Z,73.03
2024-01-19T03:24:50.590Z,74.65
2024-01-19T03:27:16.904Z,74.74
2024-01-19T03:29:43.310Z,73.44
2024-01-19T03:32:09.530Z,73.05
2024-01-19T03:34:35.705Z,74.77
2024-01-19T03:37:01.874Z,73.28
2024-01-19T03:39:28.078Z,73.22
2024-01-19T03:41:54.235Z,74.89
2024-01-19T03:44:20.445Z,73.55
2024-01-19T03:46:46.603Z,74.65
2024-01-19T03:49:12.764Z,74.68
2024-01-19T03:51:38.937Z,74.50
2024-01-19T03:54:05.134Z,75.25
2024-01-19T03:56:31.297Z,75.04
2024-01-19T03:58:57.756Z,74.73
2024-01-19T04:01:24.181Z,75.15
2024-01-19T04:03:50.439Z,75.17
2024-01-19T04:06:17.122Z,76.08
2024-01-19T04:08:43.382Z,73.51
2024-01-19T04:11:09.569Z,75.82
2024-01-19T04:13:35.986Z,75.48
2024-01-19T04:16:02.114Z,75.33
2024-01-19T04:18:28.618Z,75.10
2024-01-19T04:20:54.923Z,74.86
2024-01-19T04:23:21.166Z,75.97
2024-01-19T04:25:47.350Z,75.30
2024-01-19T04:28:13.528Z,75.07
2024-01-19T04:30:39.660Z,75.65
2024-01-19T04:33:05.979Z,76.09
2024-01-19T04:35:32.312Z,76.53
2024-01-19T04:37:58.738Z,77.00
2024-01-19T04:40:25.174Z,74.42
2024-01-19T04:42:51.318Z,76.17
2024-01-19T04:45:17.512Z,76.61
2024-01-19T04:47:44.071Z,75.48
2024-01-19T04:50:10.320Z,75.27
2024-01-19T04:52:36.771Z,75.14
2024-01-19T04:55:02.974Z,76.41
2024-01-19T04:57:29.130Z,75.39
2024-01-19T04:59:55.313Z,75.87
2024-01-19T05:02:21.534Z,75.60
2024-01-19T05:04:47.805Z,78.74
2024-01-19T05:07:13.997Z,75.86
2024-01-19T05:09:40.398Z,76.30
2024-01-19T05:12:06.553Z,75.68
2024-01-19T05:14:32.743Z,76.34
2024-01-19T05:16:58.955Z,75.95
2024-01-19T05:19:25.383Z,75.94
2024-01-19T05:21:51.633Z,76.96
2024-01-19T05:24:17.958Z,75.40
2024-01-19T05:26:44.348Z,75.04
2024-01-19T05:29:10.489Z,75.43
2024-01-19T05:31:36.908Z,74.83
2024-01-19T05:34:03.276Z,75.55
2024-01-19T05:36:29.547Z,74.81
2024-01-19T05:38:55.802Z,75.79
2024-01-19T05:41:22.035Z,75.12
2024-01-19T05:43:48.262Z,74.81
2024-01-19T05:46:14.449Z,75.23
2024-01-19T05:48:40.909Z,75.74
2024-01-19T05:51:07.169Z,74.37
2024-01-19T05:53:33.668Z,73.97
2024-01-19T05:56:00.139Z,74.39
2024-01-19T05:58:26.576Z,72.07
2024-01-19T06:00:52.766Z,74.36
2024-01-19T06:03:19.119Z,73.94
2024-01-19T06:05:45.484Z,73.70
2024-01-19T06:08:11.790Z,74.81
2024-01-19T06:10:38.280Z,74.74
2024-01-19T06:13:04.690Z,74.23
2024-01-19T06:15:31.089Z,73.61
2024-01-19T06:17:57.421Z,73.56
2024-01-19T06:20:23.689Z,75.86
2024-01-19T06:22:49.866Z,73.49
2024-01-19T06:25:16.054Z,73.60
2024-01-19T06:27:42.479Z,73.46
2024-01-19T06:30:08.703Z,73.93
2024-01-19T06:32:35.033Z,73.69
2024-01-19T06:35:01.290Z,73.51
2024-01-19T06:37:27.610Z,74.51
2024-01-19T06:39:53.788Z,73.44
2024-01-19T06:42:19.935Z,74.34
2024-01-19T06:44:46.254Z,72.90
2024-01-19T06:47:12.659Z,73.14
2024-01-19T06:49:39.142Z,73.50
2024-01-19T06:52:05.341Z,73.55
2024-01-19T06:54:31.604Z,72.78
2024-01-19T06:56:58.084Z,74.08
2024-01-19T06:59:24.286Z,73.21
2024-01-19T07:01:50.699Z,74.67
2024-01-19T07:04:17.123Z,73.76
2024-01-19T07:06:43.725Z,74.57
2024-01-19T07:09:09.964Z,73.61
2024-01-19T07:11:36.156Z,72.31
2024-01-19T07:14:02.368Z,73.41
2024-01-19T07:16:28.541Z,73.42
2024-01-19T07:18:54.989Z,72.75
2024-01-19T07:21:21.248Z,73.73
2024-01-19T07:23:47.404Z,73.32
2024-01-19T07:26:13.567Z,72.70
2024-01-19T07:28:39.706Z,73.95
2024-01-19T07:31:06.194Z,73.37
2024-01-19T07:33:33.527Z,75.38
2024-01-19T07:36:00.294Z,72.97
2024-01-19T07:38:26.624Z,74.13
2024-01-19T07:40:52.838Z,73.31
2024-01-19T07:43:19.037Z,75.16
2024-01-19T07:45:45.233Z,73.55
2024-01-19T07:48:11.737Z,73.04
2024-01-19T07:50:38.028Z,71.32
2024-01-19T07:53:04.242Z,71.98
2024-01-19T07:55:30.644Z,72.76
2024-01-19T07:57:56.796Z,72.63
2024-01-19T08:00:23.115Z,72.25
2024-01-19T08:02:49.551Z,73.90
2024-01-19T08:05:15.805Z,74.34
2024-01-19T08:07:42.114Z,72.27
2024-01-19T08:10:08.257Z,72.22
2024-01-19T08:12:34.494Z,72.38
2024-01-19T08:15:00.763Z,74.73
2024-01-19T08:17:27.008Z,73.66
2024-01-19T08:19:53.288Z,73.10
2024-01-19T08:22:19.571Z,72.55
2024-01-19T08:24:45.784Z,71.53
2024-01-19T08:27:11.941Z,73.18
2024-01-19T08:29:38.404Z,72.96
2024-01-19T08:32:04.556Z,71.19
2024-01-19T08:34:30.742Z,70.80
2024-01-19T08:36:57.184Z,71.30
2024-01-19T08:39:23.319Z,71.76
2024-01-19T08:41:49.529Z,72.49
2024-01-19T08:44:15.949Z,70.48
2024-01-19T08:46:42.359Z,71.21
2024-01-19T08:49:08.596Z,70.84
2024-01-19T08:51:34.863Z,70.97
2024-01-19T08:54:01.307Z,71.47
2024-01-19T08:56:27.492Z,70.00
2024-01-19T08:58:53.661Z,71.14
2024-01-19T09:01:19.832Z,70.73
2024-01-19T09:03:46.321Z,72.90
2024-01-19T09:06:15.328Z,70.06
2024-01-19T09:08:41.997Z,69.49
2024-01-19T09:11:08.215Z,71.39
2024-01-19T09:13:34.356Z,71.32
2024-01-19T09:16:00.499Z,70.40
2024-01-19T09:18:26.817Z,71.39
2024-01-19T09:20:53.398Z,69.98
2024-01-19T09:23:19.581Z,69.79
2024-01-19T09:25:45.813Z,68.97
2024-01-19T09:28:12.213Z,70.88
2024-01-19T09:30:38.358Z,69.38
2024-01-19T09:33:04.565Z,69.76
2024-01-19T09:35:30.950Z,67.73
2024-01-19T09:37:57.352Z,68.87
2024-01-19T09:40:23.539Z,67.30
2024-01-19T09:42:49.719Z,68.16
2024-01-19T09:45:16.029Z,69.17
2024-01-19T09:47:42.251Z,69.07
2024-01-19T09:50:08.477Z,69.88
2024-01-19T09:52:34.638Z,69.78
2024-01-19T09:55:01.189Z,69.04
2024-01-19T09:57:28.312Z,66.77
2024-01-19T09:59:55.268Z,65.75
2024-01-19T10:02:21.497Z,66.32
2024-01-19T10:04:47.744Z,67.84
2024-01-19T10:07:13.927Z,69.67
2024-01-19T10:09:40.126Z,67.47
2024-01-19T10:12:06.330Z,68.48
2024-01-19T10:14:32.761Z,70.06
2024-01-19T10:16:58.958Z,65.89
2024-01-19T10:19:25.411Z,69.39
2024-01-19T10:21:51.615Z,68.07
2024-01-19T10:24:17.894Z,67.72
2024-01-19T10:26:44.304Z,66.32
2024-01-19T10:29:10.755Z,69.44
2024-01-19T10:31:36.926Z,68.77
2024-01-19T10:34:03.440Z,66.93
2024-01-19T10:36:29.716Z,68.43
2024-01-19T10:38:55.967Z,66.66
2024-01-19T10:41:22.181Z,66.74
2024-01-19T10:43:48.313Z,66.89
2024-01-19T10:46:14.609Z,66.49
2024-01-19T10:48:41.106Z,65.26
2024-01-19T10:51:07.412Z,65.24
2024-01-19T10:53:33.627Z,65.98
2024-01-19T10:55:59.796Z,67.60
2024-01-19T10:58:26.279Z,65.28
2024-01-19T11:00:52.636Z,66.24
2024-01-19T11:03:19.121Z,66.60
2024-01-19T11:05:45.450Z,66.75
2024-01-19T11:08:11.695Z,65.58
2024-01-19T11:10:37.852Z,65.07
2024-01-19T11:13:04.003Z,65.79
2024-01-19T11:15:30.173Z,65.89
2024-01-19T11:17:56.429Z,66.89
2024-01-19T11:20:22.655Z,65.54
2024-01-19T11:22:48.807Z,65.76
2024-01-19T11:25:15.211Z,64.71
2024-01-19T11:27:41.432Z,66.24
2024-01-19T11:30:07.900Z,64.80
2024-01-19T11:32:34.214Z,64.39
2024-01-19T11:35:00.429Z,64.54
2024-01-19T11:37:26.596Z,66.82
2024-01-19T11:39:52.758Z,64.80
2024-01-19T11:42:19.013Z,65.27
2024-01-19T11:44:45.268Z,65.22
2024-01-19T11:47:11.702Z,66.15
2024-01-19T11:49:37.950Z,65.18
2024-01-19T11:52:06.343Z,66.79
2024-01-19T11:54:33.112Z,67.07
2024-01-19T11:56:59.386Z,65.21
2024-01-19T11:59:25.789Z,67.47
2024-01-19T12:01:51.977Z,67.70
2024-01-19T12:04:18.125Z,67.56
2024-01-19T12:06:44.365Z,67.48
2024-01-19T12:09:10.693Z,66.98
2024-01-19T12:11:37.017Z,68.38
2024-01-19T12:14:06.023Z,66.90
2024-01-19T12:16:32.906Z,66.63
2024-01-19T12:18:59.101Z,66.56
2024-01-19T12:21:25.571Z,66.94
2024-01-19T12:23:51.734Z,65.83
2024-01-19T12:26:18.033Z,66.54
2024-01-19T12:28:44.306Z,65.71
2024-01-19T12:31:10.812Z,66.26
2024-01-19T12:33:37.135Z,65.56
2024-01-19T12:36:03.661Z,66.50
2024-01-19T12:38:29.874Z,67.03
2024-01-19T12:40:56.066Z,67.02
2024-01-19T12:43:22.263Z,67.11
2024-01-19T12:45:48.500Z,66.04
2024-01-19T12:48:21.725Z,67.62
2024-01-19T12:50:52.024Z,67.19
2024-01-19T12:53:18.285Z,67.37
2024-01-19T12:55:44.779Z,67.84
2024-01-19T12:58:10.936Z,68.12
2024-01-19T13:00:37.163Z,67.31
2024-01-19T13:03:03.386Z,65.89
2024-01-19T13:05:29.926Z,66.58
2024-01-19T13:07:56.145Z,68.39
2024-01-19T13:10:22.315Z,68.04
2024-01-19T13:12:48.606Z,68.03
2024-01-19T13:15:14.917Z,69.83
2024-01-19T13:17:41.106Z,68.59
2024-01-19T13:20:07.334Z,67.83
2024-01-19T13:22:33.614Z,67.40
2024-01-19T13:24:59.874Z,68.07
2024-01-19T13:27:26.070Z,69.45
2024-01-19T13:29:52.274Z,69.04
2024-01-19T13:32:18.700Z,69.28
2024-01-19T13:34:45.079Z,70.58
2024-01-19T13:37:11.346Z,68.52
2024-01-19T13:39:37.727Z,69.58
2024-01-19T13:42:04.128Z,68.21
2024-01-19T13:44:30.573Z,70.46
2024-01-19T13:46:56.876Z,68.77
2024-01-19T13:49:23.289Z,69.91
2024-01-19T13:51:49.470Z,70.75
2024-01-19T13:54:15.729Z,69.55
2024-01-19T13:56:41.880Z,69.56
2024-01-19T13:59:08.119Z,68.29
2024-01-19T14:01:34.653Z,68.57
2024-01-19T14:04:00.900Z,70.55
2024-01-19T14:06:27.054Z,69.16
2024-01-19T14:08:53.806Z,71.21
2024-01-19T14:11:20.367Z,70.47
2024-01-19T14:13:46.534Z,70.31
2024-01-19T14:16:12.975Z,69.94
2024-01-19T14:18:39.184Z,68.03
2024-01-19T14:21:05.483Z,68.71
2024-01-19T14:23:31.715Z,70.07
2024-01-19T14:25:58.222Z,68.79
2024-01-19T14:28:24.409Z,68.50
2024-01-19T14:30:50.570Z,67.84
2024-01-19T14:33:16.845Z,67.17
2024-01-19T14:35:43.394Z,68.01
2024-01-19T14:38:09.908Z,68.64
2024-01-19T14:40:36.214Z,69.46
2024-01-19T14:43:02.375Z,68.75
2024-01-19T14:45:28.515Z,70.62
2024-01-19T14:47:54.870Z,71.25
2024-01-19T14:50:22.077Z,68.88
2024-01-19T14:52:49.946Z,69.20
2024-01-19T14:55:16.238Z,69.51
2024-01-19T14:57:42.389Z,68.06
2024-01-19T15:00:08.626Z,68.86
2024-01-19T15:02:34.777Z,70.80
2024-01-19T15:05:01.279Z,69.23
2024-01-19T15:07:27.562Z,69.65
2024-01-19T15:09:53.772Z,71.57
2024-01-19T15:12:19.942Z,70.79
2024-01-19T15:14:46.130Z,71.74
2024-01-19T15:17:12.337Z,69.77
2024-01-19T15:19:38.657Z,71.20
2024-01-19T15:22:05.005Z,70.57
2024-01-19T15:24:31.423Z,70.99
2024-01-19T15:26:57.815Z,71.45
2024-01-19T15:29:23.963Z,71.19
2024-01-19T15:31:50.363Z,70.91
2024-01-19T15:34:16.845Z,71.75
2024-01-19T15:36:43.041Z,71.87
2024-01-19T15:39:09.256Z,72.19
2024-01-19T15:41:35.407Z,71.78
2024-01-19T15:44:01.603Z,71.93
2024-01-19T15:46:28.154Z,71.01
2024-01-19T15:51:23.646Z,73.00
2024-01-19T15:53:50.111Z,72.37
2024-01-19T15:56:16.327Z,73.31
2024-01-19T15:58:42.801Z,73.48
2024-01-19T16:01:09.023Z,71.83
2024-01-19T16:03:35.494Z,71.57
2024-01-19T16:06:01.955Z,72.21
2024-01-19T16:08:28.262Z,72.11
2024-01-19T16:10:54.586Z,72.71
2024-01-19T16:13:21.083Z,72.71
2024-01-19T16:15:47.255Z,72.38
2024-01-19T16:18:14.013Z,72.28
2024-01-19T16:20:40.749Z,71.55
2024-01-19T16:23:06.928Z,72.44
2024-01-19T16:25:33.203Z,72.60
2024-01-19T16:27:59.417Z,73.11
2024-01-19T16:30:25.876Z,73.94
2024-01-19T16:32:52.057Z,74.31
2024-01-19T16:35:27.230Z,74.90
2024-01-19T16:37:56.874Z,74.35
2024-01-19T16:40:23.283Z,74.67
2024-01-19T16:42:49.510Z,73.42
2024-01-19T16:45:15.893Z,73.26
2024-01-19T16:47:42.436Z,74.78
2024-01-19T16:50:08.795Z,73.20
2024-01-19T16:52:35.096Z,73.81
2024-01-19T16:55:01.274Z,75.05
2024-01-19T16:57:27.664Z,72.89
2024-01-19T16:59:53.825Z,73.37
2024-01-19T17:02:20.083Z,73.59
2024-01-19T17:04:46.288Z,74.08
2024-01-19T17:07:12.487Z,75.16
2024-01-19T17:09:38.624Z,73.10
2024-01-19T17:12:05.040Z,74.69
2024-01-19T17:14:31.456Z,74.59
2024-01-19T17:16:57.650Z,72.38
2024-01-19T17:19:23.862Z,74.64
2024-01-19T17:21:50.278Z,74.52
2024-01-19T17:24:16.892Z,74.43
2024-01-19T17:26:43.340Z,74.89
2024-01-19T17:29:10.354Z,73.98
2024-01-19T17:31:36.937Z,74.18
2024-01-19T17:34:08.660Z,74.05
2024-01-19T17:36:37.522Z,74.71
2024-01-19T17:39:04.219Z,73.79
2024-01-19T17:41:30.459Z,75.60
2024-01-19T17:43:56.906Z,76.13
2024-01-19T17:46:23.104Z,74.97
2024-01-19T17:48:49.366Z,73.31
2024-01-19T17:51:15.759Z,75.09
2024-01-19T17:53:41.911Z,74.10
2024-01-19T17:56:08.268Z,75.35
2024-01-19T17:58:34.967Z,74.17
2024-01-19T18:01:02.039Z,75.46
2024-01-19T18:03:28.298Z,74.97
2024-01-19T18:05:54.567Z,74.49
2024-01-19T18:08:20.790Z,75.13
2024-01-19T18:10:47.437Z,77.23
2024-01-19T18:13:13.953Z,75.04
2024-01-19T18:15:40.388Z,74.25
2024-01-19T18:18:11.458Z,74.29
2024-01-19T18:20:43.432Z,74.67
2024-01-19T18:23:10.046Z,74.73
2024-01-19T18:25:36.242Z,74.66
2024-01-19T18:28:03.039Z,74.84
2024-01-19T18:30:29.243Z,75.14
2024-01-19T18:32:55.476Z,75.23
2024-01-19T18:35:21.922Z,75.18
2024-01-19T18:37:48.442Z,75.38
2024-01-19T18:40:14.630Z,74.91
2024-01-19T18:42:40.831Z,75.37
2024-01-19T18:45:07.238Z,75.69
2024-01-19T18:47:33.436Z,74.28
2024-01-19T18:50:00.112Z,74.04
2024-01-19T18:52:26.715Z,74.56
2024-01-19T18:54:53.235Z,75.52
2024-01-19T18:57:19.486Z,74.89
2024-01-19T18:59:46.047Z,75.10
2024-01-19T19:02:15.223Z,75.33
2024-01-19T19:04:42.714Z,76.41
2024-01-19T19:07:09.400Z,74.05
2024-01-19T19:09:35.968Z,73.02
2024-01-19T19:12:02.403Z,72.99
2024-01-19T19:14:28.632Z,74.31
2024-01-19T19:16:55.133Z,75.79
2024-01-19T19:19:21.721Z,74.91
2024-01-19T19:21:47.952Z,75.95
2024-01-19T19:24:14.433Z,75.16
2024-01-19T19:26:40.611Z,75.46
2024-01-19T19:29:06.819Z,75.05
2024-01-19T19:31:33.297Z,75.73
2024-01-19T19:33:59.600Z,76.40
2024-01-19T19:36:25.821Z,75.77
2024-01-19T19:38:52.111Z,75.04
2024-01-19T19:41:18.557Z,74.47
2024-01-19T19:43:44.798Z,75.21
2024-01-19T19:46:10.953Z,76.31
2024-01-19T19:48:37.273Z,74.38
2024-01-19T19:51:03.461Z,74.29
2024-01-19T19:53:29.617Z,74.50
2024-01-19T19:55:55.937Z,74.77
2024-01-19T19:58:22.227Z,74.13
2024-01-19T20:00:48.471Z,75.48
2024-01-19T20:03:14.822Z,73.92
2024-01-19T20:05:40.989Z,74.98
2024-01-19T20:08:07.182Z,74.29
2024-01-19T20:10:33.485Z,75.49
2024-01-19T20:12:59.905Z,74.36
2024-01-19T20:15:26.520Z,75.94
2024-01-19T20:17:52.686Z,73.75
2024-01-19T20:20:19.234Z,73.02
2024-01-19T20:22:46.465Z,74.66
2024-01-19T20:25:12.835Z,73.82
2024-01-19T20:27:39.065Z,74.64
2024-01-19T20:30:05.524Z,74.47
2024-01-19T20:32:31.927Z,73.46
2024-01-19T20:34:58.209Z,74.35
2024-01-19T20:37:24.658Z,73.81
2024-01-19T20:39:50.875Z,73.94
2024-01-19T20:42:17.164Z,73.15
2024-01-19T20:44:43.443Z,73.69
2024-01-19T20:47:09.656Z,73.17
2024-01-19T20:49:35.835Z,73.57
2024-01-19T20:52:02.477Z,72.99
2024-01-19T20:54:28.678Z,74.12
2024-01-19T20:56:55.308Z,72.68
2024-01-19T20:59:23.708Z,73.08
2024-01-19T21:01:50.278Z,73.04
2024-01-19T21:04:16.647Z,73.70
2024-01-19T21:06:42.956Z,74.44
2024-01-19T21:09:09.224Z,73.48
2024-01-19T21:11:35.433Z,73.34
2024-01-19T21:14:02.227Z,73.00
2024-01-19T21:16:28.726Z,73.21
2024-01-19T21:18:55.287Z,73.64
2024-01-19T21:21:21.585Z,73.77
2024-01-19T21:23:48.016Z,74.21
2024-01-19T21:26:14.321Z,73.84
2024-01-19T21:28:40.598Z,73.39
2024-01-19T21:31:07.023Z,72.16
2024-01-19T21:33:33.431Z,71.78
2024-01-19T21:35:59.864Z,72.47
2024-01-19T21:38:26.075Z,73.46
2024-01-19T21:40:52.547Z,72.50
2024-01-19T21:43:18.794Z,72.37
2024-01-19T21:45:45.206Z,73.00
2024-01-19T21:48:11.521Z,73.42
2024-01-19T21:50:37.982Z,72.06
2024-01-19T21:53:04.414Z,74.33
2024-01-19T21:55:30.905Z,72.95
2024-01-19T21:57:57.326Z,73.21
2024-01-19T22:00:23.803Z,72.30
2024-01-19T22:02:50.415Z,73.40
2024-01-19T22:05:16.930Z,73.32
2024-01-19T22:07:43.320Z,72.72
2024-01-19T22:10:09.899Z,73.26
2024-01-19T22:12:36.101Z,73.70
2024-01-19T22:15:02.233Z,73.59
2024-01-19T22:17:28.475Z,73.67
2024-01-19T22:19:54.668Z,72.97
2024-01-19T22:22:20.856Z,73.20
2024-01-19T22:24:47.098Z,72.73
2024-01-19T22:27:13.257Z,73.88
2024-01-19T22:29:39.443Z,73.49
2024-01-19T22:32:05.823Z,74.21
2024-01-19T22:34:32.638Z,73.62
2024-01-19T22:36:58.837Z,72.97
2024-01-19T22:39:25.289Z,73.61
2024-01-19T22:41:51.506Z,72.46
2024-01-19T22:44:18.013Z,72.12
2024-01-19T22:46:44.841Z,73.40
2024-01-19T22:49:11.164Z,72.72
2024-01-19T22:51:37.464Z,73.02
2024-01-19T22:54:04.184Z,72.56
2024-01-19T22:56:31.674Z,73.37
2024-01-19T22:58:58.006Z,73.70
2024-01-19T23:01:24.650Z,74.60
2024-01-19T23:03:50.915Z,72.97
2024-01-19T23:06:17.312Z,72.51
2024-01-19T23:08:43.586Z,72.96
2024-01-19T23:11:10.054Z,74.27
2024-01-19T23:13:36.471Z,72.80
2024-01-19T23:16:02.816Z,72.58
2024-01-19T23:18:29.666Z,71.95
2024-01-19T23:20:55.963Z,72.74
2024-01-19T23:23:22.271Z,72.03
2024-01-19T23:25:48.568Z,72.94
2024-01-19T23:28:14.735Z,72.96
2024-01-19T23:30:41.033Z,72.36
2024-01-19T23:33:07.710Z,73.57
2024-01-19T23:35:34.227Z,72.77
2024-01-19T23:38:00.717Z,72.80
2024-01-19T23:40:27.348Z,71.52
2024-01-19T23:42:53.529Z,72.29
2024-01-19T23:45:20.108Z,71.55
2024-01-19T23:47:46.688Z,72.67
2024-01-19T23:50:12.956Z,72.99
2024-01-19T23:52:39.359Z,71.35
2024-01-19T23:55:05.804Z,71.64
2024-01-19T23:57:31.949Z,71.10
2024-01-19T23:59:58.167Z,72.19
